Time;durP1;ratioP1;P1;durP2;ratioP2;P2;SDS_P1;SDS_P2;PMS_P1;PMS_P2;Temp;Humidity;BMP_temperature;BMP_pressure;BME280_temperature;BME280_humidity;BME280_pressure;Samples;Min_cycle;Max_cycle;Signal;HPM_P1;HPM_P2
2023/06/29 00:01:49;;;;;;;2.40;1.20;;;25.80;99.90;;;;;;5008824;28;20245;-96
2023/06/29 00:04:21;;;;;;;1.37;1.00;;;26.20;99.90;;;;;;5014119;28;20260;-96
2023/06/29 00:06:54;;;;;;;2.17;1.10;;;26.80;99.90;;;;;;5028351;28;20240;-95
2023/06/29 00:09:26;;;;;;;1.47;1.37;;;26.80;99.90;;;;;;5017629;28;20206;-95
2023/06/29 00:12:11;;;;;;;3.13;1.10;;;27.00;99.90;;;;;;5016535;28;20214;-96
2023/06/29 00:14:42;;;;;;;1.20;1.10;;;27.10;99.90;;;;;;5012713;28;20209;-96
2023/06/29 00:17:22;;;;;;;1.43;1.27;;;27.40;99.90;;;;;;5021287;28;20236;-96
2023/06/29 00:19:55;;;;;;;3.20;1.40;;;27.60;99.90;;;;;;5016646;28;20216;-96
2023/06/29 00:22:40;;;;;;;2.23;1.30;;;27.50;99.90;;;;;;5016679;28;20309;-95
2023/06/29 00:25:13;;;;;;;1.63;1.20;;;27.70;99.90;;;;;;5017171;28;20582;-96
2023/06/29 00:27:47;;;;;;;2.60;1.30;;;27.50;99.90;;;;;;4996976;28;20324;-94
2023/06/29 00:30:20;;;;;;;1.77;1.20;;;27.70;99.90;;;;;;5016977;28;20716;-96
2023/06/29 00:32:52;;;;;;;2.20;1.30;;;27.80;99.90;;;;;;4999765;28;20207;-95
2023/06/29 00:35:24;;;;;;;1.67;1.23;;;27.60;99.90;;;;;;5018439;28;20244;-96
2023/06/29 00:37:55;;;;;;;1.93;1.10;;;27.50;99.90;;;;;;5031738;28;20261;-96
2023/06/29 00:40:28;;;;;;;1.70;1.43;;;27.60;99.90;;;;;;5034543;28;20210;-96
2023/06/29 00:43:04;;;;;;;2.57;1.30;;;27.60;99.90;;;;;;5016436;28;20215;-96
2023/06/29 00:45:36;;;;;;;1.57;1.20;;;27.70;99.90;;;;;;5024904;28;20212;-96
2023/06/29 00:48:09;;;;;;;1.10;1.00;;;27.70;99.90;;;;;;5003533;28;20232;-96
2023/06/29 00:50:41;;;;;;;1.20;1.10;;;27.80;99.90;;;;;;5008884;28;20214;-95
2023/06/29 00:53:15;;;;;;;3.00;1.43;;;28.30;99.90;;;;;;5018518;28;20605;-96
2023/06/29 00:55:47;;;;;;;2.87;1.47;;;28.60;99.90;;;;;;5005212;28;20206;-96
2023/06/29 00:58:21;;;;;;;1.92;1.30;;;29.40;99.90;;;;;;5023013;28;20201;-96
2023/06/29 01:00:52;;;;;;;1.30;1.20;;;29.40;99.90;;;;;;5037591;28;20218;-96
2023/06/29 01:03:25;;;;;;;2.28;1.35;;;30.00;99.90;;;;;;5039561;28;20235;-94
2023/06/29 01:06:01;;;;;;;2.67;1.40;;;30.20;99.90;;;;;;5044934;28;20229;-95
2023/06/29 01:08:37;;;;;;;1.52;1.20;;;30.40;99.90;;;;;;5044397;28;20228;-95
2023/06/29 01:11:09;;;;;;;2.00;1.20;;;30.60;99.90;;;;;;5008750;28;20206;-96
2023/06/29 01:13:45;;;;;;;2.20;1.50;;;30.30;99.90;;;;;;4999920;28;20730;-95
2023/06/29 01:16:22;;;;;;;2.17;1.25;;;30.40;99.90;;;;;;5007199;28;20219;-95
2023/06/29 01:18:57;;;;;;;2.35;1.23;;;30.80;99.90;;;;;;5018310;28;20659;-95
2023/06/29 01:21:30;;;;;;;1.42;1.15;;;31.00;99.80;;;;;;5008978;28;20197;-95
2023/06/29 01:24:03;;;;;;;1.77;1.20;;;30.10;99.90;;;;;;5002244;28;20221;-95
2023/06/29 01:26:39;;;;;;;1.27;1.17;;;30.40;99.70;;;;;;5003211;28;20206;-95
2023/06/29 01:29:13;;;;;;;2.58;1.27;;;30.70;99.90;;;;;;5023184;28;20224;-95
2023/06/29 01:31:45;;;;;;;2.78;1.13;;;30.60;99.90;;;;;;5023293;28;20225;-96
2023/06/29 01:34:17;;;;;;;1.45;1.20;;;31.00;99.00;;;;;;5025854;28;20614;-96
2023/06/29 01:36:53;;;;;;;1.38;1.20;;;31.40;98.00;;;;;;5036024;28;20292;-96
2023/06/29 01:39:27;;;;;;;2.03;1.85;;;31.40;97.50;;;;;;5004319;28;20213;-91
2023/06/29 01:42:02;;;;;;;2.60;1.60;;;31.80;97.00;;;;;;4998690;28;20212;-89
2023/06/29 01:44:34;;;;;;;1.63;1.30;;;31.80;97.00;;;;;;5008686;28;20215;-94
2023/06/29 01:47:10;;;;;;;2.35;1.30;;;31.80;96.20;;;;;;5009634;28;20599;-95
2023/06/29 01:49:43;;;;;;;1.38;1.20;;;31.50;96.20;;;;;;5019854;28;20209;-95
2023/06/29 01:52:15;;;;;;;1.65;1.23;;;31.50;95.50;;;;;;5023333;28;20220;-95
2023/06/29 01:54:47;;;;;;;2.55;1.13;;;31.60;95.90;;;;;;5017044;28;20210;-94
2023/06/29 01:57:21;;;;;;;2.42;1.10;;;31.20;95.40;;;;;;5021152;28;20210;-94
2023/06/29 01:59:53;;;;;;;1.25;1.13;;;31.30;96.30;;;;;;5035237;28;20197;-95
2023/06/29 02:02:33;;;;;;;2.75;1.50;;;31.00;95.80;;;;;;5028117;28;20189;-95
2023/06/29 02:07:54;;;;;;;4.25;1.60;;;30.10;96.40;;;;;;5024733;28;20249;-94
2023/06/29 02:10:25;;;;;;;3.17;1.20;;;29.70;97.50;;;;;;5032004;28;20205;-96
2023/06/29 02:12:59;;;;;;;2.25;1.25;;;29.00;98.30;;;;;;5026125;28;20205;-95
2023/06/29 02:15:30;;;;;;;2.83;1.30;;;28.40;98.90;;;;;;5018454;28;20273;-95
2023/06/29 02:18:03;;;;;;;2.45;1.40;;;28.20;99.10;;;;;;5005535;28;20203;-95
2023/06/29 02:20:34;;;;;;;1.60;1.40;;;28.00;99.90;;;;;;5016079;28;20197;-94
2023/06/29 02:23:05;;;;;;;1.83;1.40;;;27.90;99.90;;;;;;5016998;28;20213;-94
2023/06/29 02:25:38;;;;;;;1.77;1.25;;;27.50;99.90;;;;;;5018175;28;20197;-94
2023/06/29 02:28:12;;;;;;;1.83;1.30;;;27.20;99.90;;;;;;5017945;28;20236;-94
2023/06/29 02:30:44;;;;;;;1.80;1.40;;;27.10;99.90;;;;;;5016986;28;20205;-93
2023/06/29 02:33:16;;;;;;;2.97;1.10;;;26.60;99.90;;;;;;5020149;28;20647;-94
2023/06/29 02:35:48;;;;;;;1.20;1.10;;;26.50;99.90;;;;;;5016984;28;20213;-93
2023/06/29 02:38:19;;;;;;;1.77;1.20;;;26.30;99.90;;;;;;5017034;28;20210;-95
2023/06/29 02:40:51;;;;;;;1.40;1.00;;;26.10;99.90;;;;;;5016749;28;20647;-95
2023/06/29 02:43:24;;;;;;;4.30;1.40;;;25.80;99.90;;;;;;5000139;28;20656;-95
2023/06/29 02:45:56;;;;;;;1.40;1.30;;;25.80;99.90;;;;;;5005739;28;20205;-95
2023/06/29 02:48:27;;;;;;;2.23;1.30;;;25.70;99.90;;;;;;5032973;28;20236;-95
2023/06/29 02:51:01;;;;;;;4.20;1.57;;;25.60;99.90;;;;;;5017233;28;20288;-95
2023/06/29 02:53:32;;;;;;;1.50;1.40;;;25.50;99.90;;;;;;5015053;28;20210;-94
2023/06/29 02:56:03;;;;;;;1.83;1.50;;;25.40;99.90;;;;;;5014558;28;20202;-96
2023/06/29 02:58:41;;;;;;;0.80;0.80;;;25.20;99.90;;;;;;5016272;28;20296;-96
2023/06/29 03:01:18;;;;;;;1.87;1.17;;;25.10;99.90;;;;;;5011438;28;20201;-96
2023/06/29 03:03:50;;;;;;;1.23;1.10;;;24.90;99.90;;;;;;5009121;28;20213;-96
2023/06/29 03:06:21;;;;;;;4.43;1.57;;;24.70;99.90;;;;;;5011987;28;20209;-96
2023/06/29 03:08:55;;;;;;;2.40;1.30;;;24.60;99.90;;;;;;5015554;28;20884;-96
2023/06/29 03:11:28;;;;;;;3.40;1.80;;;24.50;99.90;;;;;;5018616;28;20209;-96
2023/06/29 03:14:02;;;;;;;1.37;1.23;;;24.40;99.90;;;;;;5021507;28;20213;-94
2023/06/29 03:17:27;;;;;;;2.33;1.60;;;24.20;99.90;;;;;;5098937;22;20894;-96
2023/06/29 03:22:39;;;;;;;4.50;1.70;;;24.10;99.90;;;;;;5033083;23;10001732;-93
2023/06/29 03:31:32;;;;;;;3.00;1.53;;;23.70;99.90;;;;;;5254982;23;20241;-96
2023/06/29 03:34:22;;;;;;;3.33;1.37;;;23.50;99.90;;;;;;5019728;28;20210;-96
2023/06/29 03:51:19;;;;;;;2.70;1.70;;;22.80;99.90;;;;;;5582676;23;20265;-96
2023/06/29 03:56:47;;;;;;;3.17;1.43;;;22.70;99.90;;;;;;4989610;28;20223;-96
2023/06/29 04:05:27;;;;;;;4.80;1.83;;;22.30;99.90;;;;;;5569348;22;20780;-96
2023/06/29 04:18:50;;;;;;;1.30;1.20;;;21.80;99.90;;;;;;5015534;28;20210;-91
2023/06/29 04:21:22;;;;;;;1.33;1.23;;;21.70;99.90;;;;;;5007669;28;20292;-94
2023/06/29 04:23:56;;;;;;;2.83;1.80;;;21.60;99.90;;;;;;5008171;28;20205;-95
2023/06/29 04:26:28;;;;;;;2.70;1.27;;;21.40;99.90;;;;;;5012068;28;20674;-95
2023/06/29 04:29:08;;;;;;;2.27;1.40;;;21.40;99.90;;;;;;5007704;28;20244;-96
2023/06/29 04:31:41;;;;;;;1.87;1.10;;;21.30;99.90;;;;;;5018209;28;20212;-95
2023/06/29 04:34:17;;;;;;;1.40;1.20;;;21.20;99.90;;;;;;5018308;28;21332;-95
2023/06/29 04:36:48;;;;;;;1.30;1.20;;;21.10;99.90;;;;;;5021139;28;20199;-93
2023/06/29 04:39:22;;;;;;;1.63;1.40;;;21.00;99.90;;;;;;5026062;28;20201;-96
2023/06/29 04:42:01;;;;;;;3.97;1.20;;;20.90;99.90;;;;;;5021651;28;20216;-96
2023/06/29 04:44:45;;;;;;;1.97;1.30;;;20.90;99.90;;;;;;5015991;28;20662;-96
2023/06/29 04:47:18;;;;;;;1.40;1.30;;;20.80;99.90;;;;;;5003723;28;20212;-95
2023/06/29 04:49:51;;;;;;;6.40;1.40;;;20.70;99.90;;;;;;5016924;28;20229;-96
2023/06/29 04:52:22;;;;;;;2.80;1.50;;;20.70;99.90;;;;;;5017335;28;20231;-95
2023/06/29 04:54:56;;;;;;;1.50;1.40;;;20.60;99.90;;;;;;5013691;28;20202;-96
2023/06/29 04:57:29;;;;;;;2.70;1.43;;;20.60;99.90;;;;;;5018088;28;20221;-96
2023/06/29 05:00:00;;;;;;;2.30;1.40;;;20.50;99.90;;;;;;5014612;28;20205;-96
2023/06/29 05:02:31;;;;;;;3.00;1.27;;;20.40;99.90;;;;;;5015216;28;20652;-96
2023/06/29 05:05:03;;;;;;;1.13;1.00;;;20.40;99.90;;;;;;5016852;28;20213;-95
2023/06/29 05:07:35;;;;;;;1.40;1.23;;;20.40;99.90;;;;;;5016896;28;20201;-96
2023/06/29 05:10:10;;;;;;;2.00;1.20;;;20.30;99.90;;;;;;5006935;28;20249;-96
2023/06/29 05:12:42;;;;;;;4.03;1.20;;;20.30;99.90;;;;;;5018063;28;20201;-96
2023/06/29 05:15:15;;;;;;;1.70;1.30;;;20.20;99.90;;;;;;5017420;28;20267;-95
2023/06/29 05:17:47;;;;;;;2.13;1.27;;;20.20;99.90;;;;;;5016513;28;20685;-96
2023/06/29 05:20:19;;;;;;;2.97;1.40;;;20.10;99.90;;;;;;5020987;28;20214;-96
2023/06/29 05:22:51;;;;;;;1.93;1.60;;;20.00;99.90;;;;;;5013238;28;20207;-96
2023/06/29 05:25:26;;;;;;;1.20;1.00;;;20.00;99.90;;;;;;5012295;28;20608;-96
2023/06/29 05:27:58;;;;;;;2.10;1.20;;;19.90;99.90;;;;;;5002169;28;20788;-95
2023/06/29 05:30:30;;;;;;;1.67;1.13;;;19.90;99.90;;;;;;5007351;28;20230;-94
2023/06/29 05:33:01;;;;;;;4.07;1.30;;;19.80;99.90;;;;;;5001182;28;20228;-95
2023/06/29 05:35:34;;;;;;;1.23;1.10;;;19.80;99.90;;;;;;5011877;28;20203;-95
2023/06/29 05:38:06;;;;;;;1.37;1.23;;;19.70;99.90;;;;;;5013969;28;20206;-95
2023/06/29 05:40:40;;;;;;;1.00;0.90;;;19.70;99.90;;;;;;5008801;28;20426;-96
2023/06/29 05:43:13;;;;;;;2.53;1.43;;;19.70;99.90;;;;;;5009045;28;20206;-96
2023/06/29 05:45:44;;;;;;;3.57;1.40;;;19.70;99.90;;;;;;5018617;28;20659;-96
2023/06/29 05:48:15;;;;;;;1.43;1.27;;;19.60;99.90;;;;;;5019491;28;20209;-96
2023/06/29 05:50:47;;;;;;;2.07;1.30;;;19.60;99.90;;;;;;5011914;28;20243;-95
2023/06/29 05:53:19;;;;;;;1.00;0.90;;;19.50;99.90;;;;;;5018171;28;20258;-95
2023/06/29 05:55:52;;;;;;;1.90;1.10;;;19.50;99.90;;;;;;5018791;28;20216;-96
2023/06/29 05:58:25;;;;;;;1.80;1.10;;;19.50;99.90;;;;;;5017654;28;20209;-95
2023/06/29 06:00:57;;;;;;;1.43;1.00;;;19.40;99.90;;;;;;5011783;28;20207;-96
2023/06/29 06:03:30;;;;;;;2.37;1.10;;;19.40;99.90;;;;;;5011978;28;20205;-95
2023/06/29 06:06:02;;;;;;;4.17;1.17;;;19.40;99.90;;;;;;5016916;28;20220;-96
2023/06/29 06:08:34;;;;;;;1.17;1.00;;;19.30;99.90;;;;;;5013123;28;20209;-96
2023/06/29 06:11:08;;;;;;;1.13;1.03;;;19.30;99.90;;;;;;5018348;28;20265;-96
2023/06/29 06:13:39;;;;;;;2.53;1.13;;;19.30;99.90;;;;;;5014812;28;20221;-95
2023/06/29 06:16:11;;;;;;;1.80;1.17;;;19.30;99.90;;;;;;5021935;28;20300;-96
2023/06/29 06:18:43;;;;;;;1.30;1.03;;;19.20;99.90;;;;;;5021006;28;20228;-96
2023/06/29 06:21:14;;;;;;;1.40;1.03;;;19.20;99.90;;;;;;5027621;28;20220;-96
2023/06/29 06:23:46;;;;;;;1.10;1.00;;;19.20;99.90;;;;;;5027690;28;20191;-96
2023/06/29 06:26:21;;;;;;;1.87;1.00;;;19.10;99.90;;;;;;5021250;28;20200;-96
2023/06/29 06:28:53;;;;;;;1.20;1.10;;;19.10;99.90;;;;;;5018069;28;20213;-96
2023/06/29 06:31:25;;;;;;;1.57;1.00;;;19.00;99.90;;;;;;5028229;28;20185;-96
2023/06/29 06:34:04;;;;;;;2.13;1.20;;;19.00;99.90;;;;;;5021937;28;20194;-96
2023/06/29 06:36:35;;;;;;;2.33;1.10;;;19.00;99.90;;;;;;5020358;28;20209;-95
2023/06/29 06:39:08;;;;;;;2.00;1.17;;;18.90;99.90;;;;;;5022806;28;20206;-96
2023/06/29 06:41:41;;;;;;;1.00;0.83;;;18.90;99.90;;;;;;5017467;28;20217;-96
2023/06/29 06:44:13;;;;;;;1.37;0.97;;;18.90;99.90;;;;;;5008502;28;20213;-95
2023/06/29 06:46:47;;;;;;;3.73;0.87;;;18.80;99.90;;;;;;5012314;28;20206;-94
2023/06/29 06:49:18;;;;;;;2.47;1.10;;;18.80;99.90;;;;;;5015482;28;20311;-96
2023/06/29 06:51:50;;;;;;;1.60;1.00;;;18.70;99.90;;;;;;5012614;28;20578;-96
2023/06/29 06:54:21;;;;;;;3.07;1.00;;;18.60;99.90;;;;;;5016485;28;20202;-95
2023/06/29 06:56:58;;;;;;;2.47;1.03;;;18.70;99.90;;;;;;5023458;28;20562;-96
2023/06/29 06:59:33;;;;;;;1.73;0.90;;;18.60;99.90;;;;;;5014562;28;20213;-95
2023/06/29 07:02:08;;;;;;;2.10;0.97;;;18.60;99.90;;;;;;5023643;28;20291;-96
2023/06/29 07:04:39;;;;;;;3.57;1.20;;;18.50;99.90;;;;;;5016418;28;20212;-95
2023/06/29 07:07:11;;;;;;;1.70;0.93;;;18.50;99.90;;;;;;5007398;28;20232;-96
2023/06/29 07:09:42;;;;;;;1.30;1.00;;;18.50;99.90;;;;;;5012882;28;20243;-95
2023/06/29 07:12:16;;;;;;;2.13;1.17;;;18.40;99.90;;;;;;5011501;28;20214;-94
2023/06/29 07:14:49;;;;;;;1.37;0.90;;;18.40;99.90;;;;;;5015051;28;20245;-95
2023/06/29 07:17:20;;;;;;;2.97;0.83;;;18.30;99.90;;;;;;5001753;28;20666;-96
2023/06/29 07:19:52;;;;;;;1.60;0.93;;;18.20;99.90;;;;;;5008051;28;20210;-96
2023/06/29 07:22:26;;;;;;;2.17;0.90;;;18.20;99.90;;;;;;4996336;28;20205;-95
2023/06/29 07:25:01;;;;;;;1.10;1.00;;;18.10;99.90;;;;;;5011180;28;20248;-96
2023/06/29 07:27:35;;;;;;;2.53;1.10;;;18.10;99.90;;;;;;5008939;28;20202;-96
2023/06/29 07:30:08;;;;;;;1.00;0.90;;;18.00;99.90;;;;;;5015524;28;20255;-96
2023/06/29 07:32:40;;;;;;;2.03;1.00;;;18.00;99.90;;;;;;5014351;28;20225;-96
2023/06/29 07:35:13;;;;;;;1.77;1.00;;;17.90;99.90;;;;;;5014364;28;20209;-96
2023/06/29 07:37:44;;;;;;;1.10;1.00;;;17.90;99.90;;;;;;5015640;28;20217;-96
2023/06/29 07:40:16;;;;;;;2.70;1.03;;;17.80;99.90;;;;;;5001320;28;20214;-96
2023/06/29 07:42:50;;;;;;;1.60;1.10;;;17.80;99.90;;;;;;5016325;28;20205;-96
2023/06/29 07:45:21;;;;;;;2.13;0.90;;;17.80;99.90;;;;;;5010633;28;20197;-95
2023/06/29 07:47:53;;;;;;;1.07;0.80;;;17.80;99.90;;;;;;5015919;28;20208;-96
2023/06/29 07:50:24;;;;;;;2.17;1.10;;;17.70;99.90;;;;;;5016381;28;20237;-96
2023/06/29 07:52:57;;;;;;;2.20;1.00;;;17.70;99.90;;;;;;5016355;28;20217;-96
2023/06/29 07:55:29;;;;;;;1.00;0.90;;;17.70;99.90;;;;;;5000553;28;20212;-96
2023/06/29 07:58:03;;;;;;;2.70;1.00;;;17.60;99.90;;;;;;5014796;28;20229;-96
2023/06/29 08:00:38;;;;;;;1.90;0.90;;;17.60;99.90;;;;;;5016492;28;20209;-96
2023/06/29 08:03:10;;;;;;;1.80;1.10;;;17.50;99.90;;;;;;5014623;28;20292;-95
2023/06/29 08:05:41;;;;;;;1.37;1.07;;;17.50;99.90;;;;;;5015020;28;20217;-95
2023/06/29 08:08:16;;;;;;;2.57;1.10;;;17.40;99.90;;;;;;5025790;28;20232;-95
2023/06/29 08:10:47;;;;;;;1.40;0.90;;;17.30;99.90;;;;;;5028492;28;20237;-96
2023/06/29 08:13:21;;;;;;;1.63;0.90;;;17.30;99.90;;;;;;5028409;28;20232;-96
2023/06/29 08:15:53;;;;;;;1.73;1.00;;;17.20;99.90;;;;;;5024929;28;20233;-96
2023/06/29 08:18:25;;;;;;;2.60;0.93;;;17.20;99.90;;;;;;5006270;28;20209;-96
2023/06/29 08:20:56;;;;;;;1.37;1.03;;;17.10;99.90;;;;;;5014134;28;20206;-96
2023/06/29 08:23:28;;;;;;;1.43;1.10;;;17.00;99.90;;;;;;5014084;28;20241;-95
2023/06/29 08:25:59;;;;;;;1.67;1.20;;;17.00;99.90;;;;;;5007624;28;20217;-95
2023/06/29 08:28:34;;;;;;;2.00;0.80;;;16.90;99.90;;;;;;5018316;28;20211;-96
2023/06/29 08:31:06;;;;;;;1.70;0.90;;;16.90;99.90;;;;;;5016090;28;20241;-94
2023/06/29 08:33:37;;;;;;;1.03;0.93;;;16.90;99.90;;;;;;4996567;28;20234;-95
2023/06/29 08:36:11;;;;;;;4.03;1.37;;;16.80;99.90;;;;;;5005797;28;20232;-96
2023/06/29 08:38:45;;;;;;;2.30;1.20;;;16.70;99.90;;;;;;5015034;28;20742;-95
2023/06/29 08:41:18;;;;;;;3.23;1.17;;;16.60;99.90;;;;;;5020843;28;20225;-96
2023/06/29 08:43:53;;;;;;;3.10;1.10;;;16.50;99.90;;;;;;5016746;28;20237;-96
2023/06/29 08:46:24;;;;;;;2.37;0.97;;;16.50;99.90;;;;;;5022984;28;20627;-96
2023/06/29 08:48:57;;;;;;;1.37;0.93;;;16.40;99.90;;;;;;4997247;28;20265;-95
2023/06/29 08:51:34;;;;;;;2.03;1.10;;;16.40;99.90;;;;;;5004135;28;20593;-94
2023/06/29 08:54:06;;;;;;;2.23;1.17;;;16.40;99.90;;;;;;5008768;28;20213;-96
2023/06/29 08:56:38;;;;;;;4.27;1.33;;;16.30;99.90;;;;;;5007659;28;20212;-96
2023/06/29 08:59:13;;;;;;;1.20;0.90;;;16.30;99.90;;;;;;5000288;28;20205;-95
2023/06/29 09:01:45;;;;;;;3.93;1.10;;;16.30;99.90;;;;;;5012228;28;20654;-94
2023/06/29 09:04:16;;;;;;;1.10;1.00;;;16.30;99.90;;;;;;5017228;28;20214;-96
2023/06/29 09:06:49;;;;;;;2.33;1.10;;;16.20;99.90;;;;;;5014180;28;20210;-96
2023/06/29 09:09:21;;;;;;;1.20;0.90;;;16.20;99.90;;;;;;4997254;28;20216;-96
2023/06/29 09:11:52;;;;;;;2.60;1.00;;;16.20;99.90;;;;;;5009857;28;20237;-96
2023/06/29 09:14:28;;;;;;;1.60;0.90;;;16.30;99.90;;;;;;5011122;28;20247;-94
2023/06/29 09:17:01;;;;;;;1.30;0.90;;;16.20;99.90;;;;;;4996886;28;20647;-95
2023/06/29 09:19:35;;;;;;;2.77;1.20;;;16.20;99.90;;;;;;4997318;28;20245;-94
2023/06/29 09:22:10;;;;;;;1.63;1.00;;;16.20;99.90;;;;;;5009104;28;20210;-96
2023/06/29 09:24:41;;;;;;;1.03;0.93;;;16.10;99.90;;;;;;5016936;28;20304;-96
2023/06/29 09:27:31;;;;;;;1.40;1.00;;;16.10;99.90;;;;;;5025360;28;20205;-95
2023/06/29 09:30:05;;;;;;;1.80;0.97;;;16.10;99.90;;;;;;5028299;28;20212;-94
2023/06/29 09:32:39;;;;;;;1.00;0.80;;;16.10;99.90;;;;;;5004051;28;20607;-96
2023/06/29 09:35:12;;;;;;;1.43;0.90;;;16.00;99.90;;;;;;4999574;28;20205;-95
2023/06/29 09:37:46;;;;;;;2.13;1.03;;;16.00;99.90;;;;;;5012058;28;20203;-95
2023/06/29 09:40:18;;;;;;;1.73;1.10;;;16.00;99.90;;;;;;5011497;28;20228;-95
2023/06/29 09:42:50;;;;;;;2.07;0.90;;;15.90;99.90;;;;;;5016738;28;20218;-96
2023/06/29 09:45:24;;;;;;;1.57;0.90;;;15.90;99.90;;;;;;5017221;28;20213;-96
2023/06/29 09:47:56;;;;;;;1.30;1.10;;;15.90;99.90;;;;;;4997647;28;20308;-96
2023/06/29 09:50:30;;;;;;;1.40;0.73;;;15.90;99.90;;;;;;5006892;28;20202;-95
2023/06/29 09:53:09;;;;;;;3.33;1.40;;;15.80;99.90;;;;;;5007505;28;20274;-96
2023/06/29 09:55:42;;;;;;;1.07;0.97;;;15.70;99.90;;;;;;5021167;28;20206;-96
2023/06/29 09:58:14;;;;;;;1.40;0.90;;;15.60;99.90;;;;;;5022700;28;20220;-96
2023/06/29 10:00:49;;;;;;;3.03;1.13;;;15.50;99.90;;;;;;5015993;28;20202;-95
2023/06/29 10:03:21;;;;;;;1.67;0.90;;;15.50;99.90;;;;;;5018018;28;20230;-96
2023/06/29 10:05:54;;;;;;;1.00;0.87;;;15.50;99.90;;;;;;5016347;28;20206;-95
2023/06/29 10:08:28;;;;;;;2.10;1.00;;;15.50;99.90;;;;;;5017385;28;20217;-96
2023/06/29 10:11:04;;;;;;;1.67;0.97;;;15.50;99.90;;;;;;5002974;28;20655;-95
2023/06/29 10:13:44;;;;;;;2.87;1.10;;;15.50;99.90;;;;;;5012350;28;20201;-96
2023/06/29 10:16:21;;;;;;;2.03;1.00;;;15.50;99.90;;;;;;5010731;28;20205;-95
2023/06/29 10:18:56;;;;;;;1.50;1.00;;;15.40;99.90;;;;;;5006000;28;20205;-95
2023/06/29 10:21:28;;;;;;;1.70;0.90;;;15.30;99.90;;;;;;5015896;28;20292;-95
2023/06/29 10:24:00;;;;;;;2.67;0.90;;;15.30;99.90;;;;;;4996584;28;20261;-95
2023/06/29 10:26:31;;;;;;;1.60;1.10;;;15.30;99.90;;;;;;5013783;28;20304;-94
2023/06/29 10:29:03;;;;;;;1.77;1.10;;;15.30;99.90;;;;;;5021150;28;20213;-95
2023/06/29 10:31:36;;;;;;;0.97;0.80;;;15.30;99.90;;;;;;5011894;28;20793;-95
2023/06/29 10:34:09;;;;;;;1.43;0.90;;;15.30;99.90;;;;;;5019158;28;20217;-95
2023/06/29 10:36:48;;;;;;;2.87;1.13;;;15.30;99.90;;;;;;5018638;28;20210;-96
2023/06/29 10:39:41;;;;;;;2.10;1.07;;;15.30;99.90;;;;;;5009032;28;20272;-96
2023/06/29 10:42:35;;;;;;;1.87;1.00;;;15.20;99.90;;;;;;5000049;28;20207;-95
2023/06/29 10:45:36;;;;;;;1.27;1.07;;;15.20;99.90;;;;;;4997903;28;20209;-96
2023/06/29 10:48:13;;;;;;;0.87;0.80;;;15.20;99.90;;;;;;5002661;28;20209;-95
2023/06/29 10:51:07;;;;;;;1.20;0.97;;;15.20;99.90;;;;;;5007480;28;20213;-94
2023/06/29 10:53:41;;;;;;;1.73;0.90;;;15.20;99.90;;;;;;5020800;28;20264;-95
2023/06/29 10:56:31;;;;;;;1.43;1.10;;;15.20;99.90;;;;;;5031564;28;20253;-96
2023/06/29 10:59:03;;;;;;;1.43;0.80;;;15.20;99.90;;;;;;5031516;28;20205;-96
2023/06/29 11:01:37;;;;;;;2.47;0.90;;;15.20;99.90;;;;;;5015060;28;20245;-96
2023/06/29 11:04:11;;;;;;;1.40;0.77;;;15.20;99.90;;;;;;5004406;28;20213;-96
2023/06/29 11:06:42;;;;;;;1.60;0.90;;;15.00;99.90;;;;;;5013752;28;20263;-96
2023/06/29 11:09:15;;;;;;;1.20;1.00;;;15.00;99.90;;;;;;4996672;28;20233;-96
2023/06/29 11:11:49;;;;;;;1.10;1.00;;;14.90;99.90;;;;;;5009283;28;20240;-96
2023/06/29 11:14:21;;;;;;;2.47;1.20;;;15.00;99.90;;;;;;5023485;28;20276;-94
2023/06/29 11:16:56;;;;;;;1.87;0.93;;;14.90;99.90;;;;;;5026671;28;20205;-95
2023/06/29 11:19:31;;;;;;;1.67;1.00;;;14.90;99.90;;;;;;5022725;28;20715;-95
2023/06/29 11:22:03;;;;;;;1.00;0.87;;;14.80;99.90;;;;;;5014298;28;20269;-96
2023/06/29 11:24:35;;;;;;;1.10;1.00;;;14.80;99.90;;;;;;4996729;28;20210;-95
2023/06/29 11:27:07;;;;;;;1.23;1.00;;;14.90;99.90;;;;;;5010166;28;20206;-95
2023/06/29 11:29:39;;;;;;;2.83;1.00;;;14.90;99.90;;;;;;5016379;28;20209;-95
2023/06/29 11:32:12;;;;;;;2.70;1.33;;;14.90;99.90;;;;;;5016588;28;20312;-95
2023/06/29 11:34:46;;;;;;;1.10;0.83;;;14.90;99.90;;;;;;5016810;28;20220;-95
2023/06/29 11:37:21;;;;;;;2.23;1.10;;;14.90;99.90;;;;;;5006384;28;20217;-95
2023/06/29 11:39:53;;;;;;;2.80;0.90;;;14.90;99.90;;;;;;5007727;28;20713;-95
2023/06/29 11:42:26;;;;;;;2.03;1.10;;;14.80;99.90;;;;;;5014032;28;20244;-94
2023/06/29 11:45:04;;;;;;;2.90;1.17;;;14.80;99.90;;;;;;5018021;28;20204;-95
2023/06/29 11:47:36;;;;;;;1.77;1.00;;;14.90;99.90;;;;;;5018881;28;20218;-96
2023/06/29 11:50:12;;;;;;;3.23;1.10;;;14.80;99.90;;;;;;5020086;28;20236;-95
2023/06/29 11:52:44;;;;;;;2.67;1.40;;;14.80;99.90;;;;;;5022314;28;20236;-95
2023/06/29 11:55:18;;;;;;;1.73;1.00;;;14.80;99.90;;;;;;5030172;28;20426;-96
2023/06/29 11:57:56;;;;;;;2.93;0.90;;;14.80;99.90;;;;;;5025002;28;20267;-96
2023/06/29 12:00:33;;;;;;;3.67;1.20;;;14.80;99.90;;;;;;5006743;28;20331;-96
2023/06/29 12:03:12;;;;;;;1.90;0.90;;;14.80;99.90;;;;;;5025194;28;20217;-96
2023/06/29 12:05:46;;;;;;;1.57;1.10;;;14.80;99.90;;;;;;5019016;28;20689;-96
2023/06/29 12:08:21;;;;;;;2.03;1.00;;;14.80;99.90;;;;;;5008355;28;20209;-96
2023/06/29 12:10:54;;;;;;;1.73;0.90;;;14.80;99.90;;;;;;5015368;28;20289;-96
2023/06/29 12:13:26;;;;;;;1.93;1.00;;;14.70;99.90;;;;;;5014493;28;20230;-96
2023/06/29 12:15:57;;;;;;;1.93;0.90;;;14.80;99.90;;;;;;5014848;28;20219;-96
2023/06/29 12:18:35;;;;;;;1.13;0.90;;;14.70;99.90;;;;;;5002170;28;20261;-96
2023/06/29 12:21:09;;;;;;;1.57;0.90;;;14.80;99.90;;;;;;5006507;28;20267;-96
2023/06/29 12:23:41;;;;;;;1.83;0.97;;;14.80;99.90;;;;;;5008938;28;20220;-95
2023/06/29 12:26:13;;;;;;;1.07;0.83;;;14.70;99.90;;;;;;5033039;28;20531;-95
2023/06/29 12:28:45;;;;;;;1.70;0.90;;;14.70;99.90;;;;;;5014303;28;20312;-95
2023/06/29 12:31:18;;;;;;;2.67;1.03;;;14.70;99.90;;;;;;5014615;28;20202;-96
2023/06/29 12:33:50;;;;;;;1.63;0.90;;;14.70;99.90;;;;;;5014603;28;20626;-96
2023/06/29 12:36:26;;;;;;;1.93;1.20;;;14.80;99.90;;;;;;5008696;28;20205;-96
2023/06/29 12:38:57;;;;;;;3.13;1.27;;;14.70;99.90;;;;;;4994457;28;20627;-95
2023/06/29 12:41:29;;;;;;;2.27;0.93;;;14.70;99.90;;;;;;4997049;28;20213;-95
2023/06/29 12:44:00;;;;;;;2.80;1.20;;;14.60;99.90;;;;;;5010581;28;20640;-95
2023/06/29 12:46:31;;;;;;;2.30;1.20;;;14.70;99.90;;;;;;4999892;28;20199;-96
2023/06/29 12:49:04;;;;;;;5.63;1.10;;;14.70;99.90;;;;;;5014099;28;20213;-95
2023/06/29 12:51:38;;;;;;;1.70;1.17;;;14.70;99.90;;;;;;5026884;28;20216;-96
2023/06/29 12:54:09;;;;;;;3.67;1.07;;;14.70;99.90;;;;;;5026081;28;20728;-96
2023/06/29 12:56:41;;;;;;;1.60;1.07;;;14.70;99.90;;;;;;5013096;28;20297;-95
2023/06/29 12:59:13;;;;;;;3.07;1.10;;;14.70;99.90;;;;;;4996708;28;20302;-95
2023/06/29 13:01:45;;;;;;;2.80;1.30;;;14.80;99.90;;;;;;5012120;28;20291;-95
2023/06/29 13:04:17;;;;;;;1.43;0.90;;;14.80;99.90;;;;;;5018860;28;20202;-96
2023/06/29 13:06:53;;;;;;;2.30;1.23;;;14.80;99.90;;;;;;5027298;28;20236;-95
2023/06/29 13:09:24;;;;;;;3.27;1.40;;;14.90;99.90;;;;;;5033862;28;20212;-96
2023/06/29 13:11:56;;;;;;;1.63;1.20;;;14.90;99.90;;;;;;5034802;28;20234;-96
2023/06/29 13:14:29;;;;;;;3.80;1.57;;;15.00;99.90;;;;;;5017459;28;20248;-95
2023/06/29 13:17:01;;;;;;;2.53;1.80;;;15.00;99.90;;;;;;5015807;28;20574;-96
2023/06/29 13:19:33;;;;;;;2.47;1.40;;;15.10;99.90;;;;;;5017540;28;20680;-96
2023/06/29 13:22:06;;;;;;;2.40;1.30;;;15.20;99.90;;;;;;5006474;28;20208;-96
2023/06/29 13:24:39;;;;;;;2.37;1.30;;;15.20;99.90;;;;;;4999248;28;20574;-96
2023/06/29 13:27:11;;;;;;;3.20;1.50;;;15.30;99.90;;;;;;4998699;28;20220;-96
2023/06/29 13:29:43;;;;;;;1.57;1.40;;;15.40;99.90;;;;;;5015725;28;20560;-96
2023/06/29 13:32:15;;;;;;;1.90;1.30;;;15.40;99.90;;;;;;5017815;28;20221;-96
2023/06/29 13:34:47;;;;;;;2.90;1.57;;;15.50;99.90;;;;;;5014429;28;20233;-96
2023/06/29 13:37:22;;;;;;;7.40;1.53;;;15.50;99.90;;;;;;5010307;28;20206;-96
2023/06/29 13:39:53;;;;;;;1.93;1.33;;;15.50;99.90;;;;;;5016448;28;20690;-96
2023/06/29 13:42:25;;;;;;;3.80;1.40;;;15.60;99.90;;;;;;5016696;28;20221;-95
2023/06/29 13:44:57;;;;;;;2.40;1.60;;;15.70;99.90;;;;;;5014584;28;20267;-95
2023/06/29 13:47:28;;;;;;;3.20;1.87;;;15.60;99.90;;;;;;5001083;28;20578;-96
2023/06/29 13:50:00;;;;;;;2.93;1.80;;;15.70;99.90;;;;;;5015311;28;20229;-96
2023/06/29 13:52:34;;;;;;;1.90;1.57;;;15.70;99.90;;;;;;5018014;28;20289;-96
2023/06/29 13:55:06;;;;;;;3.90;1.93;;;15.70;99.90;;;;;;4998880;28;20305;-96
2023/06/29 13:57:38;;;;;;;1.93;1.67;;;15.80;99.90;;;;;;5015637;28;20309;-95
2023/06/29 14:00:10;;;;;;;3.30;2.13;;;15.80;99.90;;;;;;5002871;28;20582;-96
2023/06/29 14:02:41;;;;;;;5.30;2.50;;;15.80;99.90;;;;;;5023961;28;20210;-96
2023/06/29 14:05:13;;;;;;;2.80;2.07;;;15.80;99.90;;;;;;5009377;28;20203;-96